createdAt,value
2017-08-10T00:00:35.255Z,76.60
2017-08-10T00:03:02.805Z,76.60
2017-08-10T00:05:30.408Z,76.60
2017-08-10T00:07:57.949Z,76.80
2017-08-10T00:10:25.506Z,76.80
2017-08-10T00:12:53.095Z,76.70
2017-08-10T00:15:20.934Z,76.60
2017-08-10T00:17:48.481Z,76.70
2017-08-10T00:20:16.121Z,76.80
2017-08-10T00:22:43.673Z,77.00
2017-08-10T00:25:11.234Z,76.80
2017-08-10T00:27:38.845Z,77.10
2017-08-10T00:30:06.393Z,76.70
2017-08-10T00:32:33.947Z,76.80
2017-08-10T00:35:01.517Z,76.60
2017-08-10T00:37:29.068Z,77.00
2017-08-10T00:39:56.621Z,77.40
2017-08-10T00:42:24.245Z,77.70
2017-08-10T00:44:52.573Z,77.50
2017-08-10T00:47:20.142Z,77.50
2017-08-10T00:49:47.772Z,77.20
2017-08-10T00:52:15.870Z,76.60
2017-08-10T00:54:43.422Z,76.80
2017-08-10T00:57:11.001Z,77.30
2017-08-10T00:59:38.551Z,76.60
2017-08-10T01:02:06.096Z,76.00
2017-08-10T01:04:33.667Z,75.80
2017-08-10T01:07:01.228Z,75.80
2017-08-10T01:09:28.782Z,75.90
2017-08-10T01:11:56.373Z,75.80
2017-08-10T01:14:23.912Z,75.50
2017-08-10T01:16:52.009Z,75.40
2017-08-10T01:19:19.590Z,75.10
2017-08-10T01:21:47.124Z,74.70
2017-08-10T01:24:14.676Z,74.70
2017-08-10T01:26:42.458Z,74.50
2017-08-10T01:29:10.802Z,73.40
2017-08-10T01:31:38.341Z,73.40
2017-08-10T01:34:05.937Z,73.20
2017-08-10T01:36:33.476Z,73.30
2017-08-10T01:39:01.031Z,72.90
2017-08-10T01:41:28.637Z,72.80
2017-08-10T01:43:56.189Z,72.50
2017-08-10T01:46:23.774Z,72.70
2017-08-10T01:48:51.382Z,72.30
2017-08-10T01:51:18.938Z,72.40
2017-08-10T01:53:46.477Z,72.50
2017-08-10T01:56:14.084Z,72.50
2017-08-10T01:58:41.626Z,72.40
2017-08-10T02:01:09.171Z,72.70
2017-08-10T02:03:36.785Z,72.60
2017-08-10T02:06:05.098Z,73.30
2017-08-10T02:08:32.645Z,72.90
2017-08-10T02:11:00.226Z,73.20
2017-08-10T02:13:27.772Z,73.40
2017-08-10T02:15:55.322Z,73.10
2017-08-10T02:18:23.396Z,73.30
2017-08-10T02:20:50.955Z,74.10
2017-08-10T02:23:18.502Z,74.50
2017-08-10T02:25:46.073Z,74.90
2017-08-10T02:28:13.631Z,74.90
2017-08-10T02:30:41.184Z,75.20
2017-08-10T02:33:08.809Z,75.40
2017-08-10T02:35:36.356Z,75.80
2017-08-10T02:38:03.901Z,75.80
2017-08-10T02:40:31.501Z,76.20
2017-08-10T02:42:59.046Z,76.60
2017-08-10T02:45:26.601Z,76.70
2017-08-10T02:47:54.185Z,76.80
2017-08-10T02:50:21.733Z,77.20
2017-08-10T02:52:49.286Z,77.70
2017-08-10T02:55:16.877Z,77.60
2017-08-10T02:57:44.475Z,77.90
2017-08-10T03:00:12.098Z,78.10
2017-08-10T03:02:39.828Z,78.10
2017-08-10T03:05:07.383Z,78.10
2017-08-10T03:07:34.925Z,78.60
2017-08-10T03:10:02.496Z,78.50
2017-08-10T03:12:30.049Z,78.70
2017-08-10T03:14:57.600Z,78.60
2017-08-10T03:17:25.183Z,78.70
2017-08-10T03:19:53.428Z,78.60
2017-08-10T03:22:20.976Z,78.80
2017-08-10T03:24:48.605Z,78.60
2017-08-10T03:27:16.157Z,78.80
2017-08-10T03:29:43.701Z,78.60
2017-08-10T03:32:11.272Z,78.80
2017-08-10T03:34:38.820Z,78.40
2017-08-10T03:37:06.374Z,78.60
2017-08-10T03:39:33.998Z,79.00
2017-08-10T03:42:01.562Z,79.10
2017-08-10T03:44:29.122Z,79.00
2017-08-10T03:46:56.742Z,79.20
2017-08-10T03:49:24.290Z,79.10
2017-08-10T03:51:51.842Z,79.20
2017-08-10T03:54:19.417Z,79.10
2017-08-10T03:56:46.964Z,79.50
2017-08-10T03:59:14.505Z,79.40
2017-08-10T04:01:42.088Z,79.50
2017-08-10T04:04:09.637Z,79.30
2017-08-10T04:06:37.190Z,79.30
2017-08-10T04:09:04.826Z,79.40
2017-08-10T04:11:32.378Z,79.70
2017-08-10T04:13:59.942Z,79.80
2017-08-10T04:16:27.521Z,79.60
2017-08-10T04:18:55.068Z,79.80
2017-08-10T04:21:22.940Z,79.80
2017-08-10T04:23:50.521Z,80.10
2017-08-10T04:26:18.065Z,80.20
2017-08-10T04:28:45.622Z,80.50
2017-08-10T04:31:13.222Z,80.50
2017-08-10T04:33:40.765Z,80.20
2017-08-10T04:36:08.306Z,79.40
2017-08-10T04:38:35.884Z,79.80
2017-08-10T04:41:03.429Z,79.70
2017-08-10T04:43:30.981Z,79.50
2017-08-10T04:45:58.578Z,79.20
2017-08-10T04:48:26.122Z,79.20
2017-08-10T04:50:53.668Z,79.40
2017-08-10T04:53:21.285Z,79.10
2017-08-10T04:55:48.824Z,79.10
2017-08-10T04:58:16.370Z,79.30
2017-08-10T05:00:43.952Z,79.10
2017-08-10T05:03:11.502Z,78.30
2017-08-10T05:05:39.066Z,78.40
2017-08-10T05:08:06.647Z,78.00
2017-08-10T05:10:34.201Z,78.10
2017-08-10T05:13:01.740Z,77.90
2017-08-10T05:15:29.358Z,77.70
2017-08-10T05:17:56.978Z,77.10
2017-08-10T05:20:24.532Z,76.80
2017-08-10T05:22:52.680Z,75.60
2017-08-10T05:25:20.261Z,75.50
2017-08-10T05:27:48.045Z,75.50
2017-08-10T05:30:15.645Z,75.10
2017-08-10T05:32:43.188Z,74.60
2017-08-10T05:35:10.748Z,74.50
2017-08-10T05:37:38.358Z,74.00
2017-08-10T05:40:05.901Z,73.00
2017-08-10T05:42:33.449Z,73.40
2017-08-10T05:45:01.034Z,73.30
2017-08-10T05:47:28.575Z,73.50
2017-08-10T05:49:56.129Z,73.80
2017-08-10T05:52:23.745Z,74.60
2017-08-10T05:54:51.293Z,74.70
2017-08-10T05:57:18.838Z,74.50
2017-08-10T05:59:46.449Z,74.20
2017-08-10T06:02:14.034Z,73.30
2017-08-10T06:04:41.585Z,72.70
2017-08-10T06:07:09.158Z,72.10
2017-08-10T06:09:36.709Z,70.90
2017-08-10T06:12:04.265Z,70.00
2017-08-10T06:14:31.838Z,69.90
2017-08-10T06:16:59.380Z,68.20
2017-08-10T06:19:26.961Z,67.40
2017-08-10T06:21:54.556Z,65.40
2017-08-10T06:24:22.546Z,63.60
2017-08-10T06:26:50.090Z,63.60
2017-08-10T06:29:17.662Z,63.30
2017-08-10T06:31:45.205Z,62.80
2017-08-10T06:34:12.805Z,63.00
2017-08-10T06:36:40.389Z,61.60
2017-08-10T06:39:07.941Z,60.90
2017-08-10T06:41:35.503Z,60.80
2017-08-10T06:44:03.146Z,61.40
2017-08-10T06:46:30.706Z,61.30
2017-08-10T06:48:58.282Z,60.20
2017-08-10T06:51:25.858Z,60.50
2017-08-10T06:53:53.409Z,60.40
2017-08-10T06:56:20.952Z,60.60
2017-08-10T06:58:52.099Z,61.30
2017-08-10T07:01:19.653Z,61.80
2017-08-10T07:03:47.211Z,61.80
2017-08-10T07:06:14.817Z,62.30
2017-08-10T07:08:42.359Z,61.90
2017-08-10T07:11:09.904Z,61.90
2017-08-10T07:13:37.474Z,61.90
2017-08-10T07:16:05.016Z,62.20
2017-08-10T07:18:32.571Z,62.90
2017-08-10T07:21:00.158Z,63.50
2017-08-10T07:23:27.705Z,63.30
2017-08-10T07:25:55.466Z,63.90
2017-08-10T07:28:23.068Z,64.30
2017-08-10T07:30:50.620Z,64.70
2017-08-10T07:33:18.178Z,63.70
2017-08-10T07:35:45.749Z,63.90
2017-08-10T07:38:13.302Z,63.80
2017-08-10T07:40:40.849Z,64.30
2017-08-10T07:43:08.426Z,65.40
2017-08-10T07:45:35.965Z,66.00
2017-08-10T07:48:03.513Z,67.10
2017-08-10T07:50:31.113Z,65.80
2017-08-10T07:52:58.662Z,65.70
2017-08-10T07:55:26.205Z,65.40
2017-08-10T07:57:53.783Z,65.40
2017-08-10T08:00:21.323Z,65.20
2017-08-10T08:02:48.873Z,66.00
2017-08-10T08:05:16.481Z,65.70
2017-08-10T08:07:44.034Z,66.40
2017-08-10T08:10:11.577Z,67.10
2017-08-10T08:12:39.196Z,66.50
2017-08-10T08:15:06.738Z,66.50
2017-08-10T08:17:34.289Z,66.00
2017-08-10T08:20:01.869Z,66.00
2017-08-10T08:22:29.408Z,66.50
2017-08-10T08:24:56.954Z,66.90
2017-08-10T08:27:24.798Z,66.90
2017-08-10T08:29:52.372Z,66.30
2017-08-10T08:32:19.913Z,66.10
2017-08-10T08:34:47.519Z,66.00
2017-08-10T08:37:15.060Z,65.30
2017-08-10T08:39:42.606Z,65.00
2017-08-10T08:42:12.985Z,65.20
2017-08-10T08:44:40.538Z,64.50
2017-08-10T08:47:11.080Z,65.10
2017-08-10T08:49:38.717Z,65.80
2017-08-10T08:52:06.289Z,65.40
2017-08-10T08:54:33.858Z,65.40
2017-08-10T08:57:01.474Z,65.70
2017-08-10T08:59:29.033Z,65.40
2017-08-10T09:01:56.591Z,65.60
2017-08-10T09:04:24.198Z,65.10
2017-08-10T09:06:51.762Z,65.50
2017-08-10T09:09:21.782Z,65.20
2017-08-10T09:11:49.471Z,65.20
2017-08-10T09:14:17.034Z,65.20
2017-08-10T09:16:44.597Z,65.10
2017-08-10T09:19:12.509Z,65.90
2017-08-10T09:21:40.082Z,66.10
2017-08-10T09:24:07.638Z,65.90
2017-08-10T09:26:36.036Z,65.90
2017-08-10T09:29:04.009Z,65.80
2017-08-10T09:31:31.559Z,65.70
2017-08-10T09:33:59.897Z,66.20
2017-08-10T09:36:27.450Z,66.20
2017-08-10T09:38:55.002Z,66.70
2017-08-10T09:41:22.617Z,65.60
2017-08-10T09:43:50.160Z,67.10
2017-08-10T09:46:17.709Z,67.80
2017-08-10T09:48:45.290Z,67.60
2017-08-10T09:51:12.861Z,67.50
2017-08-10T09:53:40.409Z,67.80
2017-08-10T09:56:08.006Z,68.00
2017-08-10T09:58:35.562Z,67.90
2017-08-10T10:01:03.121Z,68.10
2017-08-10T10:03:30.890Z,67.90
2017-08-10T10:05:58.440Z,67.90
2017-08-10T10:08:25.985Z,67.50
2017-08-10T10:10:53.561Z,67.30
2017-08-10T10:13:21.110Z,67.20
2017-08-10T10:15:48.661Z,66.20
2017-08-10T10:18:16.274Z,65.20
2017-08-10T10:20:43.956Z,65.80
2017-08-10T10:23:11.496Z,66.20
2017-08-10T10:25:39.114Z,66.60
2017-08-10T10:28:06.666Z,66.00
2017-08-10T10:30:34.965Z,65.70
2017-08-10T10:33:02.541Z,65.70
2017-08-10T10:35:30.086Z,65.50
2017-08-10T10:37:57.709Z,67.10
2017-08-10T10:40:25.285Z,66.70
2017-08-10T10:42:52.852Z,66.30
2017-08-10T10:45:21.904Z,66.30
2017-08-10T10:47:49.514Z,65.50
2017-08-10T10:50:17.073Z,65.30
2017-08-10T10:52:44.641Z,65.60
2017-08-10T10:55:14.452Z,65.60
2017-08-10T10:57:42.048Z,66.40
2017-08-10T11:00:09.605Z,66.30
2017-08-10T11:02:38.510Z,67.10
2017-08-10T11:05:06.062Z,67.90
2017-08-10T11:07:33.610Z,68.50
2017-08-10T11:10:01.221Z,68.00
2017-08-10T11:12:29.534Z,68.00
2017-08-10T11:14:57.080Z,67.90
2017-08-10T11:17:24.669Z,68.40
2017-08-10T11:19:52.218Z,68.50
2017-08-10T11:22:19.777Z,68.70
2017-08-10T11:24:47.380Z,69.10
2017-08-10T11:27:14.921Z,68.50
2017-08-10T11:29:42.550Z,68.20
2017-08-10T11:32:10.684Z,68.40
2017-08-10T11:34:38.235Z,69.30
2017-08-10T11:37:06.561Z,69.10
2017-08-10T11:39:34.145Z,69.00
2017-08-10T11:42:01.697Z,69.30
2017-08-10T11:44:29.257Z,68.90
2017-08-10T11:46:57.755Z,68.50
2017-08-10T11:49:25.334Z,68.40
2017-08-10T11:51:52.915Z,68.60
2017-08-10T11:54:24.064Z,68.40
2017-08-10T11:56:51.617Z,68.40
2017-08-10T11:59:19.166Z,68.50
2017-08-10T12:01:46.761Z,68.50
2017-08-10T12:04:14.305Z,68.90
2017-08-10T12:06:41.849Z,69.00
2017-08-10T12:09:09.416Z,68.10
2017-08-10T12:11:37.729Z,67.70
2017-08-10T12:14:05.273Z,67.70
2017-08-10T12:16:33.323Z,68.70
2017-08-10T12:19:01.634Z,68.70
2017-08-10T12:21:29.181Z,68.70
2017-08-10T12:23:56.757Z,68.50
2017-08-10T12:26:24.330Z,69.30
2017-08-10T12:28:51.874Z,68.80
2017-08-10T12:31:19.481Z,69.00
2017-08-10T12:33:47.594Z,69.00
2017-08-10T12:36:15.137Z,69.50
2017-08-10T12:38:43.506Z,68.90
2017-08-10T12:41:11.840Z,69.50
2017-08-10T12:43:39.388Z,69.40
2017-08-10T12:46:06.977Z,69.50
2017-08-10T12:48:34.536Z,70.10
2017-08-10T12:51:02.126Z,70.40
2017-08-10T12:53:29.712Z,69.90
2017-08-10T12:55:57.273Z,70.00
2017-08-10T12:58:24.817Z,70.10
2017-08-10T13:00:52.421Z,70.50
2017-08-10T13:03:19.969Z,70.30
2017-08-10T13:05:47.524Z,70.80
2017-08-10T13:08:15.101Z,70.80
2017-08-10T13:10:42.648Z,70.40
2017-08-10T13:13:10.189Z,71.40
2017-08-10T13:15:37.770Z,71.30
2017-08-10T13:18:05.329Z,71.30
2017-08-10T13:20:32.872Z,71.20
2017-08-10T13:23:00.657Z,71.40
2017-08-10T13:25:28.205Z,72.20
2017-08-10T13:27:55.748Z,72.00
2017-08-10T13:30:23.322Z,73.20
2017-08-10T13:32:50.878Z,73.90
2017-08-10T13:35:18.659Z,74.20
2017-08-10T13:37:46.274Z,74.40
2017-08-10T13:40:13.833Z,75.00
2017-08-10T13:42:41.417Z,76.00
2017-08-10T13:45:09.006Z,75.00
2017-08-10T13:47:36.561Z,76.30
2017-08-10T13:50:04.115Z,76.90
2017-08-10T13:52:31.688Z,78.10
2017-08-10T13:54:59.240Z,78.80
2017-08-10T13:57:26.785Z,79.80
2017-08-10T13:59:54.366Z,80.60
2017-08-10T14:02:22.114Z,80.80
2017-08-10T14:04:49.797Z,80.70
2017-08-10T14:07:17.461Z,81.10
2017-08-10T14:09:45.012Z,81.00
2017-08-10T14:12:12.576Z,81.00
2017-08-10T14:14:40.168Z,81.40
2017-08-10T14:17:07.781Z,82.00
2017-08-10T14:19:35.363Z,82.40
2017-08-10T14:22:02.936Z,83.10
2017-08-10T14:24:30.490Z,83.40
2017-08-10T14:26:58.057Z,84.00
2017-08-10T14:29:25.754Z,84.30
2017-08-10T14:31:53.338Z,84.00
2017-08-10T14:34:20.889Z,83.80
2017-08-10T14:36:48.789Z,84.50
2017-08-10T14:39:16.333Z,84.70
2017-08-10T14:41:43.897Z,84.40
2017-08-10T14:44:11.525Z,84.00
2017-08-10T14:46:39.845Z,83.90
2017-08-10T14:49:07.422Z,83.80
2017-08-10T14:51:35.041Z,84.30
2017-08-10T14:54:02.680Z,85.10
2017-08-10T14:56:30.225Z,84.40
2017-08-10T14:58:57.822Z,85.10
2017-08-10T15:01:25.413Z,85.00
2017-08-10T15:03:53.033Z,84.90
2017-08-10T15:06:21.373Z,84.00
2017-08-10T15:08:48.961Z,84.00
2017-08-10T15:11:16.599Z,84.50
2017-08-10T15:13:44.237Z,84.50
2017-08-10T15:16:11.854Z,84.20
2017-08-10T15:18:39.403Z,85.10
2017-08-10T15:21:06.985Z,85.20
2017-08-10T15:23:34.560Z,84.50
2017-08-10T15:26:02.131Z,84.50
2017-08-10T15:28:30.059Z,84.10
2017-08-10T15:30:57.883Z,84.70
2017-08-10T15:33:25.673Z,83.90
2017-08-10T15:35:53.269Z,84.00
2017-08-10T15:38:21.704Z,81.10
2017-08-10T15:40:49.272Z,80.40
2017-08-10T15:43:16.865Z,79.30
2017-08-10T15:45:44.408Z,81.30
2017-08-10T15:48:12.839Z,83.30
2017-08-10T15:50:40.720Z,83.20
2017-08-10T15:53:08.258Z,83.90
2017-08-10T15:55:35.801Z,84.90
2017-08-10T15:58:03.473Z,84.90
2017-08-10T16:00:31.087Z,85.80
2017-08-10T16:02:58.652Z,85.60
2017-08-10T16:05:26.266Z,85.90
2017-08-10T16:07:53.921Z,86.10
2017-08-10T16:10:22.193Z,84.20
2017-08-10T16:12:49.832Z,84.80
2017-08-10T16:15:18.142Z,85.00
2017-08-10T16:17:45.728Z,84.80
2017-08-10T16:20:13.333Z,85.80
2017-08-10T16:22:40.918Z,86.00
2017-08-10T16:25:08.565Z,85.20
2017-08-10T16:27:36.129Z,85.90
2017-08-10T16:30:04.141Z,86.10
2017-08-10T16:32:31.804Z,83.80
2017-08-10T16:34:59.849Z,83.50
2017-08-10T16:37:27.515Z,83.60
2017-08-10T16:39:55.367Z,83.50
2017-08-10T16:42:23.025Z,84.90
2017-08-10T16:44:50.679Z,85.20
2017-08-10T16:47:18.371Z,84.80
2017-08-10T16:49:47.035Z,83.90
2017-08-10T16:52:14.728Z,84.10
2017-08-10T16:54:42.376Z,84.50
2017-08-10T16:57:10.010Z,84.70
2017-08-10T16:59:37.628Z,84.50
2017-08-10T17:02:06.069Z,84.40
2017-08-10T17:04:34.144Z,83.60
2017-08-10T17:07:02.504Z,83.60
2017-08-10T17:09:30.743Z,83.30
2017-08-10T17:11:58.465Z,83.30
2017-08-10T17:14:26.090Z,84.10
2017-08-10T17:16:54.523Z,84.40
2017-08-10T17:19:23.485Z,83.90
2017-08-10T17:21:51.053Z,84.70
2017-08-10T17:24:18.674Z,84.60
2017-08-10T17:26:47.041Z,85.80
2017-08-10T17:29:14.598Z,85.10
2017-08-10T17:31:42.181Z,84.50
2017-08-10T17:34:09.832Z,85.00
2017-08-10T17:36:37.405Z,85.70
2017-08-10T17:39:05.003Z,85.20
2017-08-10T17:41:32.822Z,85.60
2017-08-10T17:44:00.508Z,85.00
2017-08-10T17:46:28.203Z,84.90
2017-08-10T17:48:57.404Z,84.80
2017-08-10T17:51:25.065Z,84.40
2017-08-10T17:53:57.203Z,84.40
2017-08-10T17:56:29.392Z,84.50
2017-08-10T17:58:57.233Z,83.60
2017-08-10T18:01:24.902Z,83.20
2017-08-10T18:03:52.914Z,82.20
2017-08-10T18:06:21.833Z,81.80
2017-08-10T18:08:49.457Z,82.40
2017-08-10T18:11:17.144Z,83.70
2017-08-10T18:13:44.746Z,83.40
2017-08-10T18:16:12.334Z,83.60
2017-08-10T18:18:39.954Z,83.10
2017-08-10T18:21:07.549Z,84.00
2017-08-10T18:23:35.185Z,84.20
2017-08-10T18:26:04.478Z,85.20
2017-08-10T18:28:33.330Z,85.30
2017-08-10T18:31:00.890Z,85.30
2017-08-10T18:33:28.617Z,85.20
2017-08-10T18:35:56.388Z,84.20
2017-08-10T18:38:24.913Z,85.30
2017-08-10T18:40:52.594Z,84.00
2017-08-10T18:43:20.851Z,84.20
2017-08-10T18:45:48.557Z,84.10
2017-08-10T18:48:16.252Z,84.10
2017-08-10T18:50:45.547Z,84.90
2017-08-10T18:53:13.114Z,84.60
2017-08-10T18:55:40.835Z,83.20
2017-08-10T18:58:09.238Z,83.50
2017-08-10T19:00:36.884Z,84.00
2017-08-10T19:03:04.548Z,83.30
2017-08-10T19:05:32.220Z,82.90
2017-08-10T19:07:59.989Z,82.80
2017-08-10T19:10:27.705Z,82.50
2017-08-10T19:12:55.290Z,82.00
2017-08-10T19:15:22.834Z,82.40
2017-08-10T19:17:51.221Z,82.40
2017-08-10T19:20:19.844Z,82.80
2017-08-10T19:22:47.506Z,82.70
2017-08-10T19:25:16.977Z,82.30
2017-08-10T19:27:44.685Z,82.50
2017-08-10T19:30:12.329Z,82.20
2017-08-10T19:32:40.190Z,82.80
2017-08-10T19:35:09.134Z,83.00
2017-08-10T19:37:36.773Z,82.80
2017-08-10T19:40:04.401Z,83.00
2017-08-10T19:42:32.010Z,83.10
2017-08-10T19:45:00.022Z,82.90
2017-08-10T19:47:27.656Z,83.00
2017-08-10T19:49:55.345Z,82.90
2017-08-10T19:52:23.105Z,83.10
2017-08-10T19:54:51.326Z,82.70
2017-08-10T19:57:18.948Z,82.50
2017-08-10T19:59:46.655Z,82.40
2017-08-10T20:02:14.289Z,83.20
2017-08-10T20:04:41.930Z,83.10
2017-08-10T20:07:12.417Z,83.10
2017-08-10T20:09:40.004Z,82.50
2017-08-10T20:12:07.655Z,83.70
2017-08-10T20:14:35.196Z,83.10
2017-08-10T20:17:02.908Z,83.50
2017-08-10T20:19:31.491Z,84.30
2017-08-10T20:21:59.078Z,83.80
2017-08-10T20:24:26.698Z,83.40
2017-08-10T20:26:55.009Z,83.40
2017-08-10T20:29:22.601Z,83.50
2017-08-10T20:31:50.185Z,84.20
2017-08-10T20:34:17.792Z,84.50
2017-08-10T20:36:45.381Z,83.60
2017-08-10T20:39:13.132Z,83.90
2017-08-10T20:41:40.733Z,83.60
2017-08-10T20:44:09.140Z,83.50
2017-08-10T20:46:37.877Z,83.00
2017-08-10T20:49:05.422Z,83.00
2017-08-10T20:51:32.985Z,83.20
2017-08-10T20:54:00.569Z,83.10
2017-08-10T20:56:28.115Z,83.00
2017-08-10T20:58:55.697Z,83.20
2017-08-10T21:01:23.259Z,84.00
2017-08-10T21:03:50.893Z,83.60
2017-08-10T21:06:18.458Z,83.60
2017-08-10T21:08:46.249Z,84.10
2017-08-10T21:11:13.855Z,84.00
2017-08-10T21:13:43.324Z,84.40
2017-08-10T21:16:10.944Z,83.80
2017-08-10T21:18:38.557Z,83.60
2017-08-10T21:21:06.203Z,84.00
2017-08-10T21:23:34.587Z,84.00
2017-08-10T21:26:02.916Z,83.20
2017-08-10T21:28:30.452Z,83.20
2017-08-10T21:30:58.083Z,84.10
2017-08-10T21:33:25.638Z,84.10
2017-08-10T21:35:53.179Z,83.50
2017-08-10T21:38:20.768Z,82.70
2017-08-10T21:40:48.369Z,83.90
2017-08-10T21:43:16.201Z,83.80
2017-08-10T21:45:43.768Z,84.20
2017-08-10T21:48:11.844Z,84.10
2017-08-10T21:50:39.382Z,83.90
2017-08-10T21:53:07.417Z,83.50
2017-08-10T21:55:34.975Z,83.40
2017-08-10T21:58:02.518Z,83.70
2017-08-10T22:00:30.116Z,84.30
2017-08-10T22:02:57.657Z,85.20
2017-08-10T22:05:25.197Z,84.70
2017-08-10T22:07:52.769Z,84.80
2017-08-10T22:10:20.313Z,84.80
2017-08-10T22:12:47.865Z,84.30
2017-08-10T22:15:15.501Z,84.60
2017-08-10T22:17:43.061Z,84.50
2017-08-10T22:20:10.672Z,84.80
2017-08-10T22:22:38.326Z,85.10
2017-08-10T22:25:05.890Z,84.60
2017-08-10T22:27:33.435Z,85.00
2017-08-10T22:30:01.062Z,84.60
2017-08-10T22:32:28.701Z,84.40
2017-08-10T22:34:56.257Z,84.10
2017-08-10T22:37:23.883Z,84.50
2017-08-10T22:39:51.437Z,84.40
2017-08-10T22:42:18.977Z,84.10
2017-08-10T22:44:46.541Z,84.40
2017-08-10T22:47:14.861Z,84.20
2017-08-10T22:49:42.837Z,84.10
2017-08-10T22:52:10.413Z,83.90
2017-08-10T22:54:37.951Z,82.90
2017-08-10T22:57:05.497Z,83.00
2017-08-10T22:59:33.138Z,82.90
2017-08-10T23:02:00.690Z,83.30
2017-08-10T23:04:28.294Z,82.90
2017-08-10T23:06:55.896Z,82.50
2017-08-10T23:09:23.424Z,82.70
2017-08-10T23:11:51.046Z,83.00
2017-08-10T23:14:18.833Z,83.10
2017-08-10T23:16:46.382Z,82.80
2017-08-10T23:19:13.960Z,83.00
2017-08-10T23:21:41.696Z,83.20
2017-08-10T23:24:09.253Z,83.10
2017-08-10T23:26:36.895Z,83.30
2017-08-10T23:29:04.485Z,83.30
2017-08-10T23:31:32.020Z,83.50
2017-08-10T23:33:59.637Z,83.10
2017-08-10T23:36:27.246Z,83.00
2017-08-10T23:38:54.892Z,82.50
2017-08-10T23:41:23.195Z,83.20
2017-08-10T23:43:50.810Z,83.10
2017-08-10T23:46:18.349Z,82.90
2017-08-10T23:48:45.953Z,82.80
2017-08-10T23:51:13.841Z,83.20
2017-08-10T23:53:41.385Z,83.40
2017-08-10T23:56:09.006Z,83.10
2017-08-10T23:58:36.617Z,82.90
